Time;durP1;ratioP1;P1;durP2;ratioP2;P2;SDS_P1;SDS_P2;PMS_P1;PMS_P2;Temp;Humidity;BMP_temperature;BMP_pressure;BME280_temperature;BME280_humidity;BME280_pressure;Samples;Min_cycle;Max_cycle;Signal;HPM_P1;HPM_P2
2023/10/18 00:01:39;;;;;;;7.33;3.30;;;;;;;;;;5058539;28;20453;-71
2023/10/18 00:04:08;;;;;;;9.00;4.13;;;;;;;;;;5057441;28;20875;-71
2023/10/18 00:06:37;;;;;;;4.63;2.93;;;;;;;;;;5051378;28;20477;-70
2023/10/18 00:11:48;;;;;;;4.10;2.77;;;;;;;;;;5049139;28;20951;-69
2023/10/18 00:14:15;;;;;;;6.90;3.40;;;;;;;;;;5055617;28;20520;-69
2023/10/18 00:16:42;;;;;;;5.70;2.87;;;;;;;;;;5057591;28;20430;-70
2023/10/18 00:19:12;;;;;;;9.33;3.60;;;;;;;;;;5058771;28;20460;-69
2023/10/18 00:21:39;;;;;;;11.67;3.30;;;;;;;;;;5059543;28;20449;-70
2023/10/18 00:24:07;;;;;;;5.43;3.83;;;;;;;;;;5066291;28;20594;-70
2023/10/18 00:26:35;;;;;;;15.93;5.13;;;;;;;;;;5049709;28;20468;-71
2023/10/18 00:29:02;;;;;;;3.70;2.40;;;;;;;;;;5058133;28;20836;-71
2023/10/18 00:31:30;;;;;;;7.60;4.70;;;;;;;;;;5060523;28;20946;-70
2023/10/18 00:33:57;;;;;;;7.20;3.97;;;;;;;;;;5057502;28;20462;-70
2023/10/18 00:36:25;;;;;;;5.70;2.90;;;;;;;;;;5062077;28;20433;-70
2023/10/18 00:38:54;;;;;;;6.50;3.70;;;;;;;;;;5053978;28;20453;-70
2023/10/18 00:41:22;;;;;;;4.60;3.93;;;;;;;;;;5058986;28;20468;-69
2023/10/18 00:43:52;;;;;;;4.83;2.93;;;;;;;;;;5056068;28;20477;-69
2023/10/18 00:46:19;;;;;;;6.03;3.20;;;;;;;;;;5055378;28;20529;-69
2023/10/18 00:48:47;;;;;;;7.60;4.20;;;;;;;;;;5059135;28;20449;-69
2023/10/18 00:51:17;;;;;;;4.80;3.43;;;;;;;;;;5056156;28;20445;-70
2023/10/18 00:53:47;;;;;;;7.80;3.67;;;;;;;;;;5064936;28;20445;-69
2023/10/18 00:56:16;;;;;;;3.73;2.80;;;;;;;;;;5053162;28;20452;-69
2023/10/18 00:58:44;;;;;;;5.67;3.07;;;;;;;;;;5063577;28;20472;-70
2023/10/18 01:01:11;;;;;;;3.17;2.20;;;;;;;;;;5063601;28;20498;-70
2023/10/18 01:03:41;;;;;;;5.13;3.73;;;;;;;;;;5058660;28;20442;-71
2023/10/18 01:06:12;;;;;;;4.97;3.00;;;;;;;;;;5057533;28;20486;-70
2023/10/18 01:08:40;;;;;;;4.80;4.30;;;;;;;;;;5055491;28;20457;-69
2023/10/18 01:11:10;;;;;;;5.60;2.80;;;;;;;;;;5068220;28;20442;-69
2023/10/18 01:13:40;;;;;;;7.47;3.57;;;;;;;;;;5064688;28;20484;-70
2023/10/18 01:16:10;;;;;;;3.90;1.90;;;;;;;;;;5056667;28;20466;-69
2023/10/18 01:18:37;;;;;;;4.73;3.80;;;;;;;;;;5065371;28;20476;-70
2023/10/18 01:21:13;;;;;;;7.60;3.50;;;;;;;;;;5061856;28;20442;-69
2023/10/18 01:23:41;;;;;;;10.70;3.10;;;;;;;;;;5051088;28;20454;-69
2023/10/18 01:26:16;;;;;;;6.23;3.77;;;;;;;;;;5058885;28;20478;-70
2023/10/18 01:28:44;;;;;;;4.90;3.13;;;;;;;;;;5061052;28;20536;-70
2023/10/18 01:31:14;;;;;;;5.70;3.97;;;;;;;;;;5055000;28;20484;-69
2023/10/18 01:33:43;;;;;;;6.73;4.43;;;;;;;;;;5059681;28;20446;-69
2023/10/18 01:36:13;;;;;;;6.50;3.27;;;;;;;;;;5063613;28;20439;-69
2023/10/18 01:38:44;;;;;;;3.97;3.40;;;;;;;;;;5061895;28;20441;-70
2023/10/18 01:41:16;;;;;;;4.23;3.83;;;;;;;;;;5053677;28;20952;-70
2023/10/18 01:43:45;;;;;;;7.87;4.60;;;;;;;;;;5059879;28;20500;-69
2023/10/18 01:46:17;;;;;;;4.37;2.63;;;;;;;;;;5055326;28;20466;-70
2023/10/18 01:48:50;;;;;;;8.07;3.50;;;;;;;;;;5057056;28;20446;-70
2023/10/18 01:51:21;;;;;;;7.23;4.07;;;;;;;;;;5061456;28;20499;-70
2023/10/18 01:53:50;;;;;;;7.07;3.73;;;;;;;;;;5069877;28;20517;-70
2023/10/18 01:56:21;;;;;;;8.37;3.07;;;;;;;;;;5076894;28;20443;-70
2023/10/18 01:58:48;;;;;;;6.77;2.60;;;;;;;;;;5075734;28;21039;-72
2023/10/18 02:01:16;;;;;;;4.53;2.70;;;;;;;;;;5079759;28;20446;-69
2023/10/18 02:03:44;;;;;;;9.20;2.90;;;;;;;;;;5081351;28;20458;-71
2023/10/18 02:06:14;;;;;;;4.67;3.43;;;;;;;;;;5073249;28;20870;-69
2023/10/18 02:08:47;;;;;;;5.20;3.83;;;;;;;;;;5086906;28;20448;-70
2023/10/18 02:11:14;;;;;;;4.93;3.10;;;;;;;;;;5078526;28;20461;-71
2023/10/18 02:13:43;;;;;;;6.60;3.53;;;;;;;;;;5074360;28;20496;-70
2023/10/18 02:16:15;;;;;;;5.30;2.80;;;;;;;;;;5074754;28;20457;-71
2023/10/18 02:18:42;;;;;;;10.87;3.40;;;;;;;;;;5080250;28;20462;-71
2023/10/18 02:21:09;;;;;;;7.40;4.07;;;;;;;;;;5079832;28;20445;-70
2023/10/18 02:23:37;;;;;;;9.10;4.93;;;;;;;;;;5081880;28;20529;-71
2023/10/18 02:26:09;;;;;;;5.80;3.33;;;;;;;;;;5072795;28;20487;-70
2023/10/18 02:28:37;;;;;;;4.73;3.47;;;;;;;;;;5077506;28;20530;-70
2023/10/18 02:31:13;;;;;;;14.87;4.17;;;;;;;;;;5072909;28;20453;-71
2023/10/18 02:33:48;;;;;;;4.67;3.33;;;;;;;;;;5068887;28;20438;-71
2023/10/18 02:36:21;;;;;;;7.80;4.10;;;;;;;;;;5073823;28;20446;-69
2023/10/18 02:38:49;;;;;;;7.00;3.67;;;;;;;;;;5081330;28;20442;-69
2023/10/18 02:41:20;;;;;;;7.17;3.80;;;;;;;;;;5075040;28;20455;-69
2023/10/18 02:43:50;;;;;;;5.10;3.67;;;;;;;;;;5071894;28;20513;-69
2023/10/18 02:46:21;;;;;;;3.83;2.77;;;;;;;;;;5074117;28;20481;-69
2023/10/18 02:48:50;;;;;;;6.80;3.70;;;;;;;;;;5079484;28;20478;-71
2023/10/18 02:51:22;;;;;;;3.53;2.77;;;;;;;;;;5084022;28;20442;-70
2023/10/18 02:53:51;;;;;;;8.20;2.70;;;;;;;;;;5069981;28;20470;-69
2023/10/18 02:56:20;;;;;;;4.47;3.27;;;;;;;;;;5065623;28;20426;-70
2023/10/18 02:58:47;;;;;;;7.60;4.80;;;;;;;;;;5085067;28;20445;-69
2023/10/18 03:01:18;;;;;;;4.47;3.13;;;;;;;;;;5078163;28;20454;-70
2023/10/18 03:03:49;;;;;;;6.17;3.23;;;;;;;;;;5081923;28;20442;-69
2023/10/18 03:06:16;;;;;;;4.90;3.43;;;;;;;;;;5082274;28;20479;-70
2023/10/18 03:08:47;;;;;;;10.20;3.10;;;;;;;;;;5071202;28;20465;-70
2023/10/18 03:11:14;;;;;;;7.63;4.10;;;;;;;;;;5065152;28;20445;-71
2023/10/18 03:13:42;;;;;;;7.43;4.40;;;;;;;;;;5054074;28;20458;-71
2023/10/18 03:16:18;;;;;;;7.60;4.23;;;;;;;;;;5058585;28;20473;-70
2023/10/18 03:18:47;;;;;;;6.60;3.40;;;;;;;;;;5068596;28;20446;-72
2023/10/18 03:21:21;;;;;;;7.57;4.50;;;;;;;;;;5055148;28;20532;-70
2023/10/18 03:23:51;;;;;;;8.80;3.53;;;;;;;;;;5054063;28;20461;-70
2023/10/18 03:26:22;;;;;;;7.30;4.13;;;;;;;;;;5061363;28;20477;-71
2023/10/18 03:28:50;;;;;;;7.30;4.13;;;;;;;;;;5061167;28;20959;-71
2023/10/18 03:31:28;;;;;;;7.50;4.10;;;;;;;;;;5054964;28;20487;-70
2023/10/18 03:34:02;;;;;;;9.97;5.97;;;;;;;;;;5055506;28;20497;-71
2023/10/18 03:36:32;;;;;;;5.57;3.93;;;;;;;;;;5063649;28;20438;-70
2023/10/18 03:39:12;;;;;;;6.67;4.13;;;;;;;;;;5059538;28;20456;-70
2023/10/18 03:41:41;;;;;;;6.53;3.37;;;;;;;;;;5058998;28;20450;-71
2023/10/18 03:44:08;;;;;;;7.23;4.10;;;;;;;;;;5051208;28;20496;-70
2023/10/18 03:49:31;;;;;;;5.13;2.93;;;;;;;;;;5044988;28;20445;-71
2023/10/18 03:52:04;;;;;;;7.00;3.67;;;;;;;;;;5058595;28;20462;-70
2023/10/18 03:54:43;;;;;;;3.37;2.67;;;;;;;;;;5057437;28;20471;-71
2023/10/18 03:57:15;;;;;;;5.53;3.30;;;;;;;;;;5056614;28;20472;-70
2023/10/18 03:59:45;;;;;;;7.37;2.97;;;;;;;;;;5063735;28;20455;-70
2023/10/18 04:02:17;;;;;;;10.27;3.90;;;;;;;;;;5051688;28;20962;-70
2023/10/18 04:04:48;;;;;;;9.90;5.00;;;;;;;;;;5053863;28;20475;-71
2023/10/18 04:07:17;;;;;;;6.43;4.60;;;;;;;;;;5060185;28;21027;-72
2023/10/18 04:09:47;;;;;;;4.80;3.07;;;;;;;;;;5060730;28;20453;-69
2023/10/18 04:12:19;;;;;;;5.50;3.00;;;;;;;;;;5051426;28;20458;-70
2023/10/18 04:14:52;;;;;;;5.30;2.77;;;;;;;;;;5059639;28;20473;-70
2023/10/18 04:17:31;;;;;;;5.30;4.13;;;;;;;;;;5049574;28;20512;-70
2023/10/18 04:20:00;;;;;;;7.97;4.10;;;;;;;;;;5059362;28;20441;-70
2023/10/18 04:22:28;;;;;;;5.47;3.40;;;;;;;;;;5066336;28;20533;-70
2023/10/18 04:24:56;;;;;;;8.83;5.83;;;;;;;;;;5060823;28;20566;-69
2023/10/18 04:27:24;;;;;;;6.10;4.03;;;;;;;;;;5059289;28;20477;-69
2023/10/18 04:29:55;;;;;;;5.40;2.73;;;;;;;;;;5056004;28;20449;-70
2023/10/18 04:32:23;;;;;;;10.80;4.53;;;;;;;;;;5052684;28;20450;-70
2023/10/18 04:34:50;;;;;;;7.83;4.43;;;;;;;;;;5063120;28;20904;-69
2023/10/18 04:37:22;;;;;;;7.17;3.70;;;;;;;;;;5069558;28;20881;-70
2023/10/18 04:39:50;;;;;;;5.77;3.20;;;;;;;;;;5056474;28;20441;-71
2023/10/18 04:42:24;;;;;;;11.17;6.60;;;;;;;;;;5062213;28;20469;-70
2023/10/18 04:44:51;;;;;;;10.50;3.40;;;;;;;;;;5068304;28;20470;-70
2023/10/18 04:47:19;;;;;;;7.63;3.47;;;;;;;;;;5061217;28;20476;-70
2023/10/18 04:50:00;;;;;;;7.90;3.87;;;;;;;;;;5065187;28;20452;-71
2023/10/18 04:52:40;;;;;;;4.97;3.27;;;;;;;;;;5056172;28;20525;-70
2023/10/18 04:55:11;;;;;;;7.87;3.83;;;;;;;;;;5059766;28;20480;-68
2023/10/18 04:57:38;;;;;;;8.47;4.80;;;;;;;;;;5069931;28;20457;-69
2023/10/18 05:00:24;;;;;;;10.17;5.47;;;;;;;;;;5061683;28;20478;-70
2023/10/18 05:02:52;;;;;;;6.00;3.90;;;;;;;;;;5065027;28;20445;-68
2023/10/18 05:05:18;;;;;;;9.70;4.83;;;;;;;;;;5071991;28;21379;-69
2023/10/18 05:07:53;;;;;;;6.40;3.70;;;;;;;;;;5060207;28;20462;-70
2023/10/18 05:10:21;;;;;;;10.13;3.63;;;;;;;;;;5069454;28;20862;-71
2023/10/18 05:12:52;;;;;;;10.80;6.40;;;;;;;;;;5060561;28;20914;-71
2023/10/18 05:15:21;;;;;;;3.90;3.10;;;;;;;;;;5059248;28;20543;-71
2023/10/18 05:17:50;;;;;;;7.17;5.10;;;;;;;;;;5059981;28;20450;-70
2023/10/18 05:20:24;;;;;;;9.70;5.17;;;;;;;;;;5052727;28;20453;-70
2023/10/18 05:22:59;;;;;;;5.80;3.90;;;;;;;;;;5054977;28;20461;-68
2023/10/18 05:25:34;;;;;;;6.80;4.10;;;;;;;;;;5063813;28;20469;-68
2023/10/18 05:28:08;;;;;;;7.33;4.63;;;;;;;;;;5058695;28;20473;-70
2023/10/18 05:33:47;;;;;;;5.53;3.60;;;;;;;;;;5061110;28;20435;-69
2023/10/18 05:36:11;;;;;;;8.80;4.27;;;;;;;;;;5054854;28;20807;-69
2023/10/18 05:38:50;;;;;;;5.50;3.83;;;;;;;;;;5069075;28;20524;-68
2023/10/18 05:41:27;;;;;;;10.50;6.07;;;;;;;;;;5065140;28;20483;-68
2023/10/18 05:43:58;;;;;;;6.97;3.50;;;;;;;;;;5054575;28;20465;-68
2023/10/18 05:46:27;;;;;;;6.47;4.00;;;;;;;;;;5068447;28;20489;-68
2023/10/18 05:48:55;;;;;;;10.27;4.30;;;;;;;;;;5061378;28;21004;-68
2023/10/18 05:51:26;;;;;;;7.67;4.40;;;;;;;;;;5064514;28;20454;-67
2023/10/18 05:53:57;;;;;;;7.53;4.33;;;;;;;;;;5067410;28;20468;-67
2023/10/18 05:56:29;;;;;;;6.00;3.43;;;;;;;;;;5065123;28;20442;-67
2023/10/18 06:01:38;;;;;;;8.90;4.57;;;;;;;;;;5057396;28;20438;-67
2023/10/18 06:04:05;;;;;;;9.23;5.80;;;;;;;;;;5052957;28;20875;-69
2023/10/18 06:06:37;;;;;;;8.63;4.53;;;;;;;;;;5044220;28;20499;-68
2023/10/18 06:09:09;;;;;;;8.50;4.17;;;;;;;;;;5067925;28;20533;-66
2023/10/18 06:11:37;;;;;;;5.57;3.90;;;;;;;;;;5062777;28;20516;-67
2023/10/18 06:14:06;;;;;;;7.67;5.17;;;;;;;;;;5055542;28;20474;-67
2023/10/18 06:16:34;;;;;;;7.30;5.03;;;;;;;;;;5060350;28;20976;-67
2023/10/18 06:19:03;;;;;;;10.17;4.33;;;;;;;;;;5064986;28;20450;-67
2023/10/18 06:21:36;;;;;;;8.10;4.77;;;;;;;;;;5060822;28;20516;-67
2023/10/18 06:24:09;;;;;;;9.13;6.20;;;;;;;;;;5057043;28;20474;-67
2023/10/18 06:26:40;;;;;;;6.97;4.77;;;;;;;;;;5052280;28;20473;-67
2023/10/18 06:29:11;;;;;;;8.40;4.60;;;;;;;;;;5059856;28;21037;-67
2023/10/18 06:31:43;;;;;;;8.40;4.83;;;;;;;;;;5044963;28;20855;-67
2023/10/18 06:34:15;;;;;;;7.87;4.00;;;;;;;;;;5051183;28;20480;-66
2023/10/18 06:36:44;;;;;;;9.17;3.60;;;;;;;;;;5056748;28;20453;-66
2023/10/18 06:39:24;;;;;;;9.20;4.63;;;;;;;;;;5051891;28;20434;-67
2023/10/18 06:41:54;;;;;;;8.00;5.60;;;;;;;;;;5043573;28;20466;-66
2023/10/18 06:44:27;;;;;;;15.00;5.23;;;;;;;;;;5052229;28;20458;-67
2023/10/18 06:46:54;;;;;;;7.40;4.07;;;;;;;;;;5048621;28;20455;-67
2023/10/18 06:49:21;;;;;;;7.20;4.70;;;;;;;;;;5048413;28;20462;-66
2023/10/18 06:51:50;;;;;;;9.40;4.33;;;;;;;;;;5054257;28;20457;-66
2023/10/18 06:54:23;;;;;;;6.53;5.20;;;;;;;;;;5054380;28;20569;-66
2023/10/18 06:56:53;;;;;;;11.83;5.50;;;;;;;;;;5062458;28;20444;-66
2023/10/18 06:59:25;;;;;;;7.30;5.33;;;;;;;;;;5063158;28;20541;-66
2023/10/18 07:01:54;;;;;;;6.07;4.00;;;;;;;;;;5058489;28;20512;-66
2023/10/18 07:04:27;;;;;;;9.77;5.07;;;;;;;;;;5058241;28;20501;-67
2023/10/18 07:06:54;;;;;;;9.17;5.47;;;;;;;;;;5061090;28;20947;-66
2023/10/18 07:09:31;;;;;;;7.63;3.80;;;;;;;;;;5064925;28;20530;-67
2023/10/18 07:12:03;;;;;;;10.07;6.10;;;;;;;;;;5051495;28;20878;-66
2023/10/18 07:14:32;;;;;;;6.20;4.60;;;;;;;;;;5056502;28;20481;-67
2023/10/18 07:17:04;;;;;;;7.20;5.33;;;;;;;;;;5066692;28;20496;-66
2023/10/18 07:19:33;;;;;;;8.10;4.57;;;;;;;;;;5055053;28;20936;-66
2023/10/18 07:22:06;;;;;;;10.97;5.63;;;;;;;;;;5058243;28;20461;-66
2023/10/18 07:24:38;;;;;;;8.70;4.40;;;;;;;;;;5059872;28;21013;-67
2023/10/18 07:27:08;;;;;;;8.40;4.97;;;;;;;;;;5062630;28;20913;-68
2023/10/18 07:29:37;;;;;;;11.70;5.80;;;;;;;;;;5052058;28;20888;-68
2023/10/18 07:32:06;;;;;;;9.00;5.77;;;;;;;;;;5053593;28;20458;-68
2023/10/18 07:34:36;;;;;;;7.70;4.53;;;;;;;;;;5067161;28;20470;-68
2023/10/18 07:37:17;;;;;;;11.43;6.03;;;;;;;;;;5070005;28;20453;-69
2023/10/18 07:39:44;;;;;;;8.50;5.47;;;;;;;;;;5061361;28;21004;-68
2023/10/18 07:42:12;;;;;;;5.67;4.00;;;;;;;;;;5062241;28;20999;-68
2023/10/18 07:44:43;;;;;;;8.57;5.03;;;;;;;;;;5054015;28;20462;-68
2023/10/18 07:47:17;;;;;;;8.30;4.20;;;;;;;;;;5063899;28;20536;-66
2023/10/18 07:49:45;;;;;;;9.10;5.10;;;;;;;;;;5055231;28;20530;-67
2023/10/18 07:52:12;;;;;;;10.07;4.83;;;;;;;;;;5062649;28;20454;-67
2023/10/18 07:54:39;;;;;;;8.90;5.03;;;;;;;;;;5057179;28;20469;-68
2023/10/18 07:57:15;;;;;;;7.37;5.23;;;;;;;;;;5059520;28;20452;-67
2023/10/18 07:59:47;;;;;;;9.57;5.53;;;;;;;;;;5067826;28;20436;-68
2023/10/18 08:02:13;;;;;;;10.03;5.50;;;;;;;;;;5059270;28;20449;-68
2023/10/18 08:04:42;;;;;;;10.20;6.30;;;;;;;;;;5055259;28;20461;-67
2023/10/18 08:07:12;;;;;;;10.83;5.10;;;;;;;;;;5060572;28;20978;-67
2023/10/18 08:09:41;;;;;;;7.87;5.20;;;;;;;;;;5069963;28;20852;-67
2023/10/18 08:12:15;;;;;;;8.07;4.97;;;;;;;;;;5058926;28;20465;-68
2023/10/18 08:14:46;;;;;;;8.37;5.20;;;;;;;;;;5063377;28;20471;-68
2023/10/18 08:17:29;;;;;;;7.30;5.07;;;;;;;;;;5063162;28;20514;-69
2023/10/18 08:20:17;;;;;;;8.43;5.30;;;;;;;;;;5052136;28;20468;-69
2023/10/18 08:22:44;;;;;;;8.20;5.47;;;;;;;;;;5060409;28;20449;-68
2023/10/18 08:25:21;;;;;;;9.77;5.53;;;;;;;;;;5055846;28;20474;-69
2023/10/18 08:27:48;;;;;;;8.10;5.60;;;;;;;;;;5061517;28;20480;-68
2023/10/18 08:30:23;;;;;;;8.13;4.53;;;;;;;;;;5069010;28;20484;-67
2023/10/18 08:32:51;;;;;;;10.07;4.53;;;;;;;;;;5058329;28;20517;-68
2023/10/18 08:35:20;;;;;;;7.60;4.20;;;;;;;;;;5057062;28;20522;-67
2023/10/18 08:37:47;;;;;;;7.37;3.67;;;;;;;;;;5064416;28;20454;-67
2023/10/18 08:40:27;;;;;;;13.80;5.37;;;;;;;;;;5052965;28;20450;-67
2023/10/18 08:42:57;;;;;;;9.83;6.47;;;;;;;;;;5056218;28;20477;-67
2023/10/18 08:45:26;;;;;;;10.73;5.97;;;;;;;;;;5054882;28;20477;-67
2023/10/18 08:47:57;;;;;;;9.40;4.23;;;;;;;;;;5054682;28;20469;-67
2023/10/18 08:50:26;;;;;;;9.40;5.30;;;;;;;;;;5070847;28;20441;-67
2023/10/18 08:52:53;;;;;;;8.50;5.03;;;;;;;;;;5058885;28;20454;-68
2023/10/18 08:55:22;;;;;;;7.37;5.00;;;;;;;;;;5064670;28;20466;-68
2023/10/18 08:57:55;;;;;;;10.80;5.60;;;;;;;;;;5063983;28;20441;-67
2023/10/18 09:03:08;;;;;;;7.70;4.83;;;;;;;;;;5051425;28;20444;-67
2023/10/18 09:05:35;;;;;;;7.67;5.03;;;;;;;;;;5064848;28;21011;-67
2023/10/18 09:08:04;;;;;;;6.93;4.70;;;;;;;;;;5054944;28;20457;-68
2023/10/18 09:10:42;;;;;;;8.73;3.70;;;;;;;;;;5058358;28;20449;-67
2023/10/18 09:15:56;;;;;;;8.90;5.63;;;;;;;;;;5050968;28;21013;-67
2023/10/18 09:18:25;;;;;;;6.43;4.60;;;;;;;;;;5063477;28;20978;-67
2023/10/18 09:20:56;;;;;;;9.47;5.47;;;;;;;;;;5063157;28;21007;-66
2023/10/18 09:23:24;;;;;;;8.30;5.23;;;;;;;;;;5054415;28;20840;-66
2023/10/18 09:26:01;;;;;;;6.07;4.00;;;;;;;;;;5059969;28;20450;-67
2023/10/18 09:28:32;;;;;;;4.73;3.53;;;;;;;;;;5044083;28;20844;-67
2023/10/18 09:31:01;;;;;;;8.37;5.03;;;;;;;;;;5052089;28;20580;-67
2023/10/18 09:33:32;;;;;;;8.13;5.10;;;;;;;;;;5058081;28;20528;-68
2023/10/18 09:36:01;;;;;;;12.20;5.60;;;;;;;;;;5065541;28;20984;-67
2023/10/18 09:38:39;;;;;;;11.30;4.90;;;;;;;;;;5059263;28;20453;-67
2023/10/18 09:41:06;;;;;;;9.17;4.90;;;;;;;;;;5065190;28;20442;-67
2023/10/18 09:43:36;;;;;;;11.50;5.90;;;;;;;;;;5065513;28;20845;-67
2023/10/18 09:46:03;;;;;;;8.67;5.50;;;;;;;;;;5063512;28;20458;-69
2023/10/18 09:48:33;;;;;;;8.17;5.07;;;;;;;;;;5071537;28;20998;-69
2023/10/18 09:51:06;;;;;;;12.07;5.70;;;;;;;;;;5058142;28;20535;-69
2023/10/18 09:53:34;;;;;;;8.47;5.30;;;;;;;;;;5065367;28;20493;-71
2023/10/18 09:56:02;;;;;;;10.33;4.90;;;;;;;;;;5057448;28;20458;-70
2023/10/18 09:58:33;;;;;;;6.47;5.03;;;;;;;;;;5061427;28;20491;-69
2023/10/18 10:01:13;;;;;;;8.80;5.20;;;;;;;;;;5062155;28;20617;-69
2023/10/18 10:03:50;;;;;;;11.97;5.70;;;;;;;;;;5062014;28;20445;-69
2023/10/18 10:06:17;;;;;;;9.23;5.33;;;;;;;;;;5064768;28;20469;-70
2023/10/18 10:08:47;;;;;;;7.97;5.90;;;;;;;;;;5049171;28;20801;-69
2023/10/18 10:11:15;;;;;;;11.40;5.73;;;;;;;;;;5058751;28;20540;-70
2023/10/18 10:13:44;;;;;;;10.00;5.70;;;;;;;;;;5066615;28;20442;-71
2023/10/18 10:16:13;;;;;;;9.43;5.60;;;;;;;;;;5063662;28;20462;-69
2023/10/18 10:18:47;;;;;;;7.10;4.90;;;;;;;;;;5060984;28;20842;-69
2023/10/18 10:21:16;;;;;;;9.07;6.60;;;;;;;;;;5060389;28;20972;-69
2023/10/18 10:23:43;;;;;;;7.63;5.70;;;;;;;;;;5055086;28;20446;-69
2023/10/18 10:26:12;;;;;;;12.70;5.20;;;;;;;;;;5059163;28;20478;-70
2023/10/18 10:31:50;;;;;;;8.07;4.67;;;;;;;;;;5057056;28;20857;-70
2023/10/18 10:34:24;;;;;;;9.27;5.00;;;;;;;;;;5048489;28;20553;-69
2023/10/18 10:36:53;;;;;;;7.30;4.93;;;;;;;;;;5060925;28;20446;-70
2023/10/18 10:39:24;;;;;;;6.60;4.40;;;;;;;;;;5064580;28;20897;-70
2023/10/18 10:41:52;;;;;;;5.40;4.47;;;;;;;;;;5058615;28;20446;-70
2023/10/18 10:44:30;;;;;;;7.37;4.60;;;;;;;;;;5059260;28;20484;-69
2023/10/18 10:47:13;;;;;;;8.23;4.80;;;;;;;;;;5063475;28;20450;-70
2023/10/18 10:49:58;;;;;;;7.03;3.97;;;;;;;;;;5068609;28;20488;-69
2023/10/18 10:52:29;;;;;;;4.77;3.33;;;;;;;;;;5051902;28;20506;-69
2023/10/18 10:55:04;;;;;;;9.17;4.30;;;;;;;;;;5052862;28;20485;-69
2023/10/18 10:57:35;;;;;;;7.33;5.00;;;;;;;;;;5066306;28;20455;-70
2023/10/18 11:00:22;;;;;;;9.70;4.10;;;;;;;;;;5060921;28;20435;-70
2023/10/18 11:02:54;;;;;;;6.40;4.17;;;;;;;;;;5056461;28;20454;-70
2023/10/18 11:05:25;;;;;;;9.00;4.33;;;;;;;;;;5064089;28;20483;-70
2023/10/18 11:07:54;;;;;;;7.30;4.83;;;;;;;;;;5062489;28;20457;-69
2023/10/18 11:10:22;;;;;;;9.97;5.27;;;;;;;;;;5067859;28;20905;-69
2023/10/18 11:12:49;;;;;;;6.03;3.67;;;;;;;;;;5068424;28;20827;-69
2023/10/18 11:15:27;;;;;;;8.27;4.87;;;;;;;;;;5062296;28;20462;-69
2023/10/18 11:18:09;;;;;;;8.37;4.60;;;;;;;;;;5060156;28;20461;-69
2023/10/18 11:20:50;;;;;;;7.27;5.50;;;;;;;;;;5057845;28;20527;-69
2023/10/18 11:23:17;;;;;;;6.70;4.33;;;;;;;;;;5051818;28;21607;-69
2023/10/18 11:25:45;;;;;;;8.37;5.07;;;;;;;;;;5057915;28;20469;-70
2023/10/18 11:28:28;;;;;;;8.17;5.80;;;;;;;;;;5060203;28;20493;-70
2023/10/18 11:30:56;;;;;;;9.50;4.87;;;;;;;;;;5049527;28;20457;-69
2023/10/18 11:33:36;;;;;;;8.43;4.27;;;;;;;;;;5048177;28;20530;-69
2023/10/18 11:36:08;;;;;;;7.10;4.70;;;;;;;;;;5050566;28;20450;-69
2023/10/18 11:38:35;;;;;;;7.30;4.70;;;;;;;;;;5057640;28;20492;-69
2023/10/18 11:41:09;;;;;;;7.07;5.03;;;;;;;;;;5059114;28;20445;-69
2023/10/18 11:43:39;;;;;;;7.90;4.80;;;;;;;;;;5050779;28;20536;-69
2023/10/18 11:46:07;;;;;;;9.67;4.67;;;;;;;;;;5055147;28;20957;-69
2023/10/18 11:48:34;;;;;;;8.73;5.60;;;;;;;;;;5062557;28;20707;-69
2023/10/18 11:51:02;;;;;;;6.93;5.20;;;;;;;;;;5064268;28;20449;-69
2023/10/18 11:53:32;;;;;;;8.20;5.30;;;;;;;;;;5054601;28;20458;-68
2023/10/18 11:56:00;;;;;;;6.10;3.80;;;;;;;;;;5058466;28;20458;-68
2023/10/18 11:58:29;;;;;;;7.93;3.97;;;;;;;;;;5055668;28;20536;-69
2023/10/18 12:00:58;;;;;;;6.73;4.60;;;;;;;;;;5049123;28;20458;-68
2023/10/18 12:03:27;;;;;;;9.37;4.13;;;;;;;;;;5056670;28;20442;-68
2023/10/18 12:05:55;;;;;;;8.80;5.90;;;;;;;;;;5050789;28;20628;-68
2023/10/18 12:08:23;;;;;;;5.40;4.30;;;;;;;;;;5060391;28;20464;-67
2023/10/18 12:10:52;;;;;;;8.10;4.60;;;;;;;;;;5065577;28;20469;-67
2023/10/18 12:13:20;;;;;;;7.63;4.37;;;;;;;;;;5066960;28;20453;-68
2023/10/18 12:15:48;;;;;;;13.60;3.83;;;;;;;;;;5063354;28;20484;-69
2023/10/18 12:18:15;;;;;;;7.90;4.63;;;;;;;;;;5066850;28;20519;-68
2023/10/18 12:20:44;;;;;;;10.20;5.43;;;;;;;;;;5065712;28;20446;-69
2023/10/18 12:23:13;;;;;;;5.43;3.63;;;;;;;;;;5049618;28;20465;-69
2023/10/18 12:25:42;;;;;;;6.37;4.13;;;;;;;;;;5065377;28;20470;-69
2023/10/18 12:28:13;;;;;;;9.90;4.27;;;;;;;;;;5059032;28;20558;-69
2023/10/18 12:30:41;;;;;;;7.30;4.23;;;;;;;;;;5060083;28;20583;-67
2023/10/18 12:33:14;;;;;;;7.40;4.17;;;;;;;;;;5057291;28;20531;-68
2023/10/18 12:35:41;;;;;;;4.97;3.60;;;;;;;;;;5055368;28;20930;-68
2023/10/18 12:38:14;;;;;;;7.40;4.40;;;;;;;;;;5068075;28;20488;-71
2023/10/18 12:40:51;;;;;;;11.53;3.80;;;;;;;;;;5060484;28;20534;-70
2023/10/18 12:43:21;;;;;;;6.40;4.30;;;;;;;;;;5058054;28;20555;-67
2023/10/18 12:45:50;;;;;;;5.63;3.47;;;;;;;;;;5065878;28;20651;-67
2023/10/18 12:48:22;;;;;;;7.23;4.37;;;;;;;;;;5061706;28;20530;-68
2023/10/18 12:50:50;;;;;;;8.07;4.63;;;;;;;;;;5060811;28;21071;-68
2023/10/18 12:53:37;;;;;;;6.87;4.13;;;;;;;;;;5064649;28;20464;-68
2023/10/18 12:58:57;;;;;;;7.10;3.77;;;;;;;;;;5069270;28;20484;-66
2023/10/18 13:01:31;;;;;;;6.80;3.80;;;;;;;;;;5065663;28;20541;-68
2023/10/18 13:03:59;;;;;;;5.20;3.57;;;;;;;;;;5062950;28;20524;-67
2023/10/18 13:06:30;;;;;;;4.83;3.50;;;;;;;;;;5063335;28;20540;-67
2023/10/18 13:09:15;;;;;;;4.90;3.80;;;;;;;;;;5056819;28;20434;-67
2023/10/18 13:11:44;;;;;;;4.60;3.37;;;;;;;;;;5058467;28;20478;-67
2023/10/18 13:14:15;;;;;;;6.53;4.00;;;;;;;;;;5060877;28;20569;-67
2023/10/18 13:16:42;;;;;;;5.00;3.20;;;;;;;;;;5063057;28;20481;-67
2023/10/18 13:19:09;;;;;;;5.13;3.43;;;;;;;;;;5069730;28;20455;-67
2023/10/18 13:21:39;;;;;;;4.63;3.20;;;;;;;;;;5064285;28;20466;-66
2023/10/18 13:24:16;;;;;;;5.63;3.53;;;;;;;;;;5058275;28;20559;-67
2023/10/18 13:26:43;;;;;;;3.30;2.63;;;;;;;;;;5065729;28;21013;-68
2023/10/18 13:29:27;;;;;;;3.30;2.40;;;;;;;;;;5067703;28;20476;-66
2023/10/18 13:31:57;;;;;;;3.73;2.07;;;;;;;;;;5064072;28;20450;-66
2023/10/18 13:34:24;;;;;;;3.53;2.63;;;;;;;;;;5058695;28;20571;-68
2023/10/18 13:36:52;;;;;;;4.00;1.80;;;;;;;;;;5057442;28;20446;-67
2023/10/18 13:39:22;;;;;;;3.90;2.00;;;;;;;;;;5065004;28;20788;-67
2023/10/18 13:41:49;;;;;;;4.70;2.40;;;;;;;;;;5066646;28;20890;-67
2023/10/18 13:44:19;;;;;;;3.63;1.80;;;;;;;;;;5060293;28;20493;-67
2023/10/18 13:46:47;;;;;;;6.30;2.30;;;;;;;;;;5055298;28;20452;-66
2023/10/18 13:49:17;;;;;;;3.53;2.30;;;;;;;;;;5068076;28;20803;-66
2023/10/18 13:51:45;;;;;;;3.40;1.83;;;;;;;;;;5068905;28;20445;-66
2023/10/18 13:54:13;;;;;;;3.63;1.87;;;;;;;;;;5061289;28;20564;-66
2023/10/18 13:56:40;;;;;;;2.30;1.90;;;;;;;;;;5072214;28;20904;-67
2023/10/18 13:59:08;;;;;;;3.60;2.00;;;;;;;;;;5068295;28;20446;-66
2023/10/18 14:01:38;;;;;;;5.13;2.20;;;;;;;;;;5062192;28;20456;-66
2023/10/18 14:04:08;;;;;;;3.70;2.60;;;;;;;;;;5060952;28;20466;-67
2023/10/18 14:06:35;;;;;;;2.23;2.03;;;;;;;;;;5058935;28;20446;-67
2023/10/18 14:09:04;;;;;;;3.07;1.73;;;;;;;;;;5059677;28;20446;-67
2023/10/18 14:11:33;;;;;;;3.60;2.73;;;;;;;;;;5061005;28;20853;-67
2023/10/18 14:14:00;;;;;;;2.60;2.00;;;;;;;;;;5064682;28;20484;-67
2023/10/18 14:16:27;;;;;;;4.00;2.50;;;;;;;;;;5060844;28;20442;-67
2023/10/18 14:18:56;;;;;;;6.33;3.17;;;;;;;;;;5058333;28;20457;-67
2023/10/18 14:21:24;;;;;;;5.77;2.80;;;;;;;;;;5071014;28;21004;-67
2023/10/18 14:23:54;;;;;;;5.40;2.07;;;;;;;;;;5064676;28;20506;-66
2023/10/18 14:26:24;;;;;;;3.50;2.40;;;;;;;;;;5071181;28;20453;-67
2023/10/18 14:28:51;;;;;;;3.23;2.50;;;;;;;;;;5051044;28;20442;-68
2023/10/18 14:31:20;;;;;;;5.40;2.77;;;;;;;;;;5053979;28;20478;-67
2023/10/18 14:33:49;;;;;;;2.60;1.83;;;;;;;;;;5057709;28;20509;-67
2023/10/18 14:36:19;;;;;;;6.10;2.50;;;;;;;;;;5058428;28;20450;-67
2023/10/18 14:38:47;;;;;;;5.63;2.50;;;;;;;;;;5070925;28;20478;-66
2023/10/18 14:41:20;;;;;;;3.93;2.60;;;;;;;;;;5070723;28;20441;-66
2023/10/18 14:43:50;;;;;;;6.47;3.40;;;;;;;;;;5056504;28;20478;-66
2023/10/18 14:46:19;;;;;;;3.80;2.37;;;;;;;;;;5062876;28;20485;-66
2023/10/18 14:48:46;;;;;;;4.33;2.80;;;;;;;;;;5060398;28;20458;-67
2023/10/18 14:51:13;;;;;;;4.70;3.03;;;;;;;;;;5057260;28;20480;-67
2023/10/18 14:53:42;;;;;;;3.77;2.37;;;;;;;;;;5057793;28;20960;-68
2023/10/18 14:56:12;;;;;;;4.57;2.70;;;;;;;;;;5063558;28;20504;-67
2023/10/18 14:58:41;;;;;;;10.47;3.77;;;;;;;;;;5070458;28;20594;-67
2023/10/18 15:01:10;;;;;;;3.83;2.80;;;;;;;;;;5060673;28;20450;-66
2023/10/18 15:03:37;;;;;;;4.70;2.37;;;;;;;;;;5064175;28;20549;-67
2023/10/18 15:06:08;;;;;;;6.90;3.40;;;;;;;;;;5059071;28;20460;-68
2023/10/18 15:08:36;;;;;;;4.30;2.97;;;;;;;;;;5065717;28;20445;-67
2023/10/18 15:11:13;;;;;;;4.30;3.20;;;;;;;;;;5066204;28;20469;-67
2023/10/18 15:13:40;;;;;;;5.60;3.60;;;;;;;;;;5061381;28;20875;-67
2023/10/18 15:16:07;;;;;;;4.70;3.00;;;;;;;;;;5063132;28;20454;-66
2023/10/18 15:18:34;;;;;;;5.30;3.47;;;;;;;;;;5055829;28;20454;-67
2023/10/18 15:21:03;;;;;;;4.70;3.90;;;;;;;;;;5064377;28;20506;-66
2023/10/18 15:23:30;;;;;;;6.53;3.63;;;;;;;;;;5057415;28;20508;-66